KARA/ARA METAR and TAF weather

Enter ICAO airport designator
Station Type Date Time Source
KARA METAR 2022/05/23 12:53 UTC NOAA

KARA 231253Z 06006KT 5SM BR BKN006 OVC012 22/21 A3004 RMK AO2 CIG 004V010 SLP170 T02220206


Station Type Date Time Source
KARA Decoded METAR 2022/05/23 12:53 UTC NOAA

NEW IBERIA ACADIANA REGIONAL, LA, United States (KARA) 30-02N 091-53W 18M
May 23, 2022 - 08:53 AM EDT / 2022.05.23 1253 UTC
Wind: from the ENE (060 degrees) at 7 MPH (6 KT):0
Visibility: 5 mile(s):0
Sky conditions: overcast
Weather: mist
Temperature: 72.0 F (22.2 C)
Dew Point: 69.1 F (20.6 C)
Relative Humidity: 90%
Pressure (altimeter): 30.04 in. Hg (1017 hPa)
ob: KARA 231253Z 06006KT 5SM BR BKN006 OVC012 22/21 A3004 RMK AO2 CIG 004V010 SLP170 T02220206
cycle: 13

Station Type Date Time Source
KARA TAF 2022/05/23 12:45 UTC NOAA

TAF KARA 231137Z 2312/2412 05008KT P6SM BKN015
TEMPO 2312/2314 BKN006
FM231600 02007KT P6SM SCT030
FM231800 07008KT P6SM VCSH BKN200
FM240000 VRB05KT P6SM OVC050
FM240700 12008KT P6SM OVC025

Example: see airport list